sensor_id;sensor_type;location;lat;lon;timestamp;pressure;altitude;pressure_sealevel;temperature
62930;BMP280;49036;42.782;23.108;2023-01-09T00:00:49;94242.22;;;-2.84
62930;BMP280;49036;42.782;23.108;2023-01-09T00:03:15;94241.22;;;-2.87
62930;BMP280;49036;42.782;23.108;2023-01-09T00:05:41;94232.75;;;-2.95
62930;BMP280;49036;42.782;23.108;2023-01-09T00:08:06;94231.53;;;-2.99
62930;BMP280;49036;42.782;23.108;2023-01-09T00:10:32;94234.75;;;-2.90
62930;BMP280;49036;42.782;23.108;2023-01-09T00:12:57;94236.06;;;-2.79
62930;BMP280;49036;42.782;23.108;2023-01-09T00:15:23;94240.66;;;-2.97
62930;BMP280;49036;42.782;23.108;2023-01-09T00:17:48;94242.09;;;-3.07
62930;BMP280;49036;42.782;23.108;2023-01-09T00:20:14;94229.75;;;-3.08
62930;BMP280;49036;42.782;23.108;2023-01-09T00:22:40;94231.47;;;-3.10
62930;BMP280;49036;42.782;23.108;2023-01-09T00:25:06;94224.31;;;-3.08
62930;BMP280;49036;42.782;23.108;2023-01-09T00:27:32;94226.03;;;-3.10
62930;BMP280;49036;42.782;23.108;2023-01-09T00:29:58;94234.47;;;-3.03
62930;BMP280;49036;42.782;23.108;2023-01-09T00:32:24;94229.75;;;-3.08
62930;BMP280;49036;42.782;23.108;2023-01-09T00:34:50;94237.41;;;-3.12
62930;BMP280;49036;42.782;23.108;2023-01-09T00:37:15;94233.41;;;-3.17
62930;BMP280;49036;42.782;23.108;2023-01-09T00:39:41;94224.72;;;-3.26
62930;BMP280;49036;42.782;23.108;2023-01-09T00:42:12;94220.22;;;-3.35
62930;BMP280;49036;42.782;23.108;2023-01-09T00:44:42;94224.53;;;-3.17
62930;BMP280;49036;42.782;23.108;2023-01-09T00:47:22;94228.25;;;-3.15
62930;BMP280;49036;42.782;23.108;2023-01-09T00:49:50;94230.19;;;-3.21
62930;BMP280;49036;42.782;23.108;2023-01-09T00:52:16;94228.44;;;-3.24
62930;BMP280;49036;42.782;23.108;2023-01-09T00:54:42;94222.00;;;-3.26
62930;BMP280;49036;42.782;23.108;2023-01-09T00:57:11;94229.25;;;-3.12
62930;BMP280;49036;42.782;23.108;2023-01-09T00:59:37;94223.59;;;-3.03
62930;BMP280;49036;42.782;23.108;2023-01-09T01:02:03;94227.31;;;-3.06
62930;BMP280;49036;42.782;23.108;2023-01-09T01:04:29;94222.09;;;-3.09
62930;BMP280;49036;42.782;23.108;2023-01-09T01:07:13;94216.44;;;-3.11
62930;BMP280;49036;42.782;23.108;2023-01-09T01:09:57;94205.34;;;-3.02
62930;BMP280;49036;42.782;23.108;2023-01-09T01:12:22;94208.91;;;-2.85
62930;BMP280;49036;42.782;23.108;2023-01-09T01:14:48;94205.19;;;-2.82
62930;BMP280;49036;42.782;23.108;2023-01-09T01:17:13;94208.34;;;-2.89
62930;BMP280;49036;42.782;23.108;2023-01-09T01:19:39;94201.19;;;-2.98
62930;BMP280;49036;42.782;23.108;2023-01-09T01:22:04;94200.44;;;-2.98
62930;BMP280;49036;42.782;23.108;2023-01-09T01:24:30;94200.69;;;-2.96
62930;BMP280;49036;42.782;23.108;2023-01-09T01:26:55;94195.56;;;-2.83
62930;BMP280;49036;42.782;23.108;2023-01-09T01:29:21;94195.81;;;-2.86
62930;BMP280;49036;42.782;23.108;2023-01-09T01:31:46;94189.34;;;-2.89
62930;BMP280;49036;42.782;23.108;2023-01-09T01:34:12;94202.13;;;-3.01
62930;BMP280;49036;42.782;23.108;2023-01-09T01:36:37;94188.53;;;-3.18
62930;BMP280;49036;42.782;23.108;2023-01-09T01:39:03;94187.31;;;-3.11
62930;BMP280;49036;42.782;23.108;2023-01-09T01:41:28;94185.28;;;-3.22
62930;BMP280;49036;42.782;23.108;2023-01-09T01:44:01;94176.66;;;-3.20
62930;BMP280;49036;42.782;23.108;2023-01-09T01:46:29;94172.72;;;-3.25
62930;BMP280;49036;42.782;23.108;2023-01-09T01:49:02;94170.47;;;-3.21
62930;BMP280;49036;42.782;23.108;2023-01-09T01:51:32;94164.03;;;-3.29
62930;BMP280;49036;42.782;23.108;2023-01-09T01:54:03;94166.47;;;-3.31
62930;BMP280;49036;42.782;23.108;2023-01-09T01:56:45;94165.78;;;-3.26
62930;BMP280;49036;42.782;23.108;2023-01-09T01:59:25;94153.59;;;-3.42
62930;BMP280;49036;42.782;23.108;2023-01-09T02:01:55;94158.06;;;-3.33
62930;BMP280;49036;42.782;23.108;2023-01-09T02:04:22;94159.59;;;-3.26
62930;BMP280;49036;42.782;23.108;2023-01-09T02:06:51;94155.69;;;-3.20
62930;BMP280;49036;42.782;23.108;2023-01-09T02:09:18;94154.44;;;-3.30
62930;BMP280;49036;42.782;23.108;2023-01-09T02:11:48;94155.69;;;-3.25
62930;BMP280;49036;42.782;23.108;2023-01-09T02:14:17;94155.63;;;-3.31
62930;BMP280;49036;42.782;23.108;2023-01-09T02:19:49;94155.63;;;-3.31
62930;BMP280;49036;42.782;23.108;2023-01-09T02:22:35;94144.84;;;-3.25
62930;BMP280;49036;42.782;23.108;2023-01-09T02:31:12;94142.22;;;-3.51
62930;BMP280;49036;42.782;23.108;2023-01-09T02:33:51;94145.91;;;-3.54
62930;BMP280;49036;42.782;23.108;2023-01-09T02:36:26;94133.63;;;-3.44
62930;BMP280;49036;42.782;23.108;2023-01-09T02:44:32;94113.88;;;-3.50
62930;BMP280;49036;42.782;23.108;2023-01-09T02:49:53;94111.75;;;-3.72
62930;BMP280;49036;42.782;23.108;2023-01-09T03:08:12;94115.22;;;-3.23
62930;BMP280;49036;42.782;23.108;2023-01-09T03:10:41;94122.69;;;-3.01
62930;BMP280;49036;42.782;23.108;2023-01-09T03:13:10;94131.34;;;-2.97
62930;BMP280;49036;42.782;23.108;2023-01-09T03:15:39;94129.13;;;-2.88
62930;BMP280;49036;42.782;23.108;2023-01-09T03:18:08;94120.53;;;-2.69
62930;BMP280;49036;42.782;23.108;2023-01-09T03:20:36;94115.84;;;-2.74
62930;BMP280;49036;42.782;23.108;2023-01-09T03:23:04;94123.50;;;-2.78
62930;BMP280;49036;42.782;23.108;2023-01-09T03:25:31;94123.03;;;-2.71
62930;BMP280;49036;42.782;23.108;2023-01-09T03:28:00;94123.28;;;-2.52
62930;BMP280;49036;42.782;23.108;2023-01-09T03:30:27;94125.25;;;-2.36
62930;BMP280;49036;42.782;23.108;2023-01-09T03:32:54;94115.16;;;-2.24
62930;BMP280;49036;42.782;23.108;2023-01-09T03:35:19;94121.09;;;-2.15
62930;BMP280;49036;42.782;23.108;2023-01-09T03:37:45;94113.91;;;-1.95
62930;BMP280;49036;42.782;23.108;2023-01-09T03:40:10;94117.09;;;-1.91
62930;BMP280;49036;42.782;23.108;2023-01-09T03:42:36;94119.56;;;-1.82
62930;BMP280;49036;42.782;23.108;2023-01-09T03:45:02;94117.00;;;-1.52
62930;BMP280;49036;42.782;23.108;2023-01-09T03:47:28;94108.34;;;-1.50
62930;BMP280;49036;42.782;23.108;2023-01-09T03:49:53;94114.50;;;-1.44
62930;BMP280;49036;42.782;23.108;2023-01-09T03:52:19;94112.25;;;-1.29
62930;BMP280;49036;42.782;23.108;2023-01-09T03:54:44;94116.72;;;-1.32
62930;BMP280;49036;42.782;23.108;2023-01-09T03:57:10;94102.59;;;-1.24
62930;BMP280;49036;42.782;23.108;2023-01-09T03:59:35;94107.72;;;-1.15
62930;BMP280;49036;42.782;23.108;2023-01-09T04:02:01;94104.28;;;-1.21
62930;BMP280;49036;42.782;23.108;2023-01-09T04:04:26;94106.72;;;-1.12
62930;BMP280;49036;42.782;23.108;2023-01-09T04:06:52;94092.34;;;-1.07
62930;BMP280;49036;42.782;23.108;2023-01-09T04:09:17;94094.50;;;-0.94
62930;BMP280;49036;42.782;23.108;2023-01-09T04:11:43;94084.34;;;-0.94
62930;BMP280;49036;42.782;23.108;2023-01-09T04:14:08;94089.59;;;-1.02
62930;BMP280;49036;42.782;23.108;2023-01-09T04:16:34;94096.03;;;-0.99
62930;BMP280;49036;42.782;23.108;2023-01-09T04:18:59;94093.16;;;-1.23
62930;BMP280;49036;42.782;23.108;2023-01-09T04:21:25;94087.19;;;-1.16
62930;BMP280;49036;42.782;23.108;2023-01-09T04:23:50;94096.59;;;-1.17
62930;BMP280;49036;42.782;23.108;2023-01-09T04:26:16;94098.38;;;-1.25
62930;BMP280;49036;42.782;23.108;2023-01-09T04:28:41;94094.97;;;-1.43
62930;BMP280;49036;42.782;23.108;2023-01-09T04:31:07;94098.44;;;-1.48
62930;BMP280;49036;42.782;23.108;2023-01-09T04:33:32;94091.00;;;-1.42
62930;BMP280;49036;42.782;23.108;2023-01-09T04:35:58;94094.44;;;-1.41
62930;BMP280;49036;42.782;23.108;2023-01-09T04:38:24;94098.66;;;-1.46
62930;BMP280;49036;42.782;23.108;2023-01-09T04:40:51;94095.50;;;-1.61
62930;BMP280;49036;42.782;23.108;2023-01-09T04:43:17;94090.84;;;-1.72
62930;BMP280;49036;42.782;23.108;2023-01-09T04:45:42;94087.38;;;-1.67
62930;BMP280;49036;42.782;23.108;2023-01-09T04:48:07;94086.81;;;-1.48
62930;BMP280;49036;42.782;23.108;2023-01-09T04:50:33;94092.25;;;-1.48
62930;BMP280;49036;42.782;23.108;2023-01-09T04:52:58;94098.66;;;-1.46
62930;BMP280;49036;42.782;23.108;2023-01-09T04:55:24;94094.69;;;-1.39
62930;BMP280;49036;42.782;23.108;2023-01-09T04:57:49;94099.16;;;-1.42
62930;BMP280;49036;42.782;23.108;2023-01-09T05:00:15;94099.13;;;-1.25
62930;BMP280;49036;42.782;23.108;2023-01-09T05:02:40;94100.84;;;-1.28
62930;BMP280;49036;42.782;23.108;2023-01-09T05:05:07;94102.03;;;-1.12
62930;BMP280;49036;42.782;23.108;2023-01-09T05:07:34;94101.22;;;-1.01
62930;BMP280;49036;42.782;23.108;2023-01-09T05:10:00;94098.50;;;-1.01
62930;BMP280;49036;42.782;23.108;2023-01-09T05:12:26;94102.22;;;-1.04
62930;BMP280;49036;42.782;23.108;2023-01-09T05:14:51;94100.47;;;-1.02
62930;BMP280;49036;42.782;23.108;2023-01-09T05:17:17;94101.03;;;-1.14
62930;BMP280;49036;42.782;23.108;2023-01-09T05:19:42;94092.63;;;-1.16
62930;BMP280;49036;42.782;23.108;2023-01-09T05:22:13;94098.06;;;-1.11
62930;BMP280;49036;42.782;23.108;2023-01-09T05:24:38;94084.94;;;-1.12
62930;BMP280;49036;42.782;23.108;2023-01-09T05:27:04;94086.22;;;-1.19
62930;BMP280;49036;42.782;23.108;2023-01-09T05:29:29;94088.41;;;-1.12
62930;BMP280;49036;42.782;23.108;2023-01-09T05:31:55;94089.88;;;-1.11
62930;BMP280;49036;42.782;23.108;2023-01-09T05:34:20;94081.19;;;-1.04
62930;BMP280;49036;42.782;23.108;2023-01-09T05:36:46;94078.88;;;-0.94
62930;BMP280;49036;42.782;23.108;2023-01-09T05:39:11;94082.06;;;-0.84
62930;BMP280;49036;42.782;23.108;2023-01-09T05:41:37;94083.84;;;-0.92
62930;BMP280;49036;42.782;23.108;2023-01-09T05:44:03;94080.56;;;-0.80
62930;BMP280;49036;42.782;23.108;2023-01-09T05:46:29;94083.97;;;-0.74
62930;BMP280;49036;42.782;23.108;2023-01-09T05:48:55;94075.19;;;-0.61
62930;BMP280;49036;42.782;23.108;2023-01-09T05:51:21;94081.28;;;-0.49
62930;BMP280;49036;42.782;23.108;2023-01-09T05:53:46;94074.09;;;-0.47
62930;BMP280;49036;42.782;23.108;2023-01-09T05:56:12;94071.53;;;-0.39
62930;BMP280;49036;42.782;23.108;2023-01-09T05:58:37;94067.75;;;-0.30
62930;BMP280;49036;42.782;23.108;2023-01-09T06:01:03;94070.22;;;-0.27
62930;BMP280;49036;42.782;23.108;2023-01-09T06:03:29;94067.66;;;-0.19
62930;BMP280;49036;42.782;23.108;2023-01-09T06:05:54;94070.13;;;-0.15
62930;BMP280;49036;42.782;23.108;2023-01-09T06:08:20;94063.06;;;-0.05
62930;BMP280;49036;42.782;23.108;2023-01-09T06:10:45;94055.28;;;0.04
62930;BMP280;49036;42.782;23.108;2023-01-09T06:13:11;94062.03;;;0.22
62930;BMP280;49036;42.782;23.108;2023-01-09T06:15:37;94056.50;;;0.28
62930;BMP280;49036;42.782;23.108;2023-01-09T06:18:03;94054.66;;;0.17
62930;BMP280;49036;42.782;23.108;2023-01-09T06:20:29;94059.66;;;0.13
62930;BMP280;49036;42.782;23.108;2023-01-09T06:22:55;94061.06;;;0.20
62930;BMP280;49036;42.782;23.108;2023-01-09T06:25:21;94055.56;;;0.25
62930;BMP280;49036;42.782;23.108;2023-01-09T06:27:47;94054.03;;;0.30
62930;BMP280;49036;42.782;23.108;2023-01-09T06:30:13;94053.19;;;0.35
62930;BMP280;49036;42.782;23.108;2023-01-09T06:32:39;94057.81;;;0.21
62930;BMP280;49036;42.782;23.108;2023-01-09T06:35:04;94052.63;;;0.42
62930;BMP280;49036;42.782;23.108;2023-01-09T06:37:30;94049.75;;;0.53
62930;BMP280;49036;42.782;23.108;2023-01-09T06:39:55;94051.75;;;0.53
62930;BMP280;49036;42.782;23.108;2023-01-09T06:42:21;94061.06;;;0.63
62930;BMP280;49036;42.782;23.108;2023-01-09T06:44:46;94063.06;;;0.81
62930;BMP280;49036;42.782;23.108;2023-01-09T06:47:12;94057.94;;;0.91
62930;BMP280;49036;42.782;23.108;2023-01-09T06:49:37;94046.72;;;0.95
62930;BMP280;49036;42.782;23.108;2023-01-09T06:52:03;94049.75;;;0.91
62930;BMP280;49036;42.782;23.108;2023-01-09T06:54:32;94049.81;;;0.67
62930;BMP280;49036;42.782;23.108;2023-01-09T06:56:58;94051.53;;;0.70
62930;BMP280;49036;42.782;23.108;2023-01-09T06:59:23;94051.50;;;1.07
62930;BMP280;49036;42.782;23.108;2023-01-09T07:01:49;94046.53;;;1.25
62930;BMP280;49036;42.782;23.108;2023-01-09T07:04:14;94044.63;;;1.52
62930;BMP280;49036;42.782;23.108;2023-01-09T07:06:41;94048.84;;;1.66
62930;BMP280;49036;42.782;23.108;2023-01-09T07:09:07;94049.16;;;1.75
62930;BMP280;49036;42.782;23.108;2023-01-09T07:11:32;94041.47;;;1.74
62930;BMP280;49036;42.782;23.108;2023-01-09T07:13:58;94045.47;;;1.73
62930;BMP280;49036;42.782;23.108;2023-01-09T07:16:23;94046.81;;;1.53
62930;BMP280;49036;42.782;23.108;2023-01-09T07:18:49;94050.41;;;1.74
62930;BMP280;49036;42.782;23.108;2023-01-09T07:21:14;94046.69;;;1.91
62930;BMP280;49036;42.782;23.108;2023-01-09T07:23:40;94046.13;;;2.05
62930;BMP280;49036;42.782;23.108;2023-01-09T07:26:05;94036.88;;;2.09
62930;BMP280;49036;42.782;23.108;2023-01-09T07:28:31;94060.53;;;1.80
62930;BMP280;49036;42.782;23.108;2023-01-09T07:30:58;94054.44;;;1.87
62930;BMP280;49036;42.782;23.108;2023-01-09T07:33:26;94066.88;;;1.88
62930;BMP280;49036;42.782;23.108;2023-01-09T07:35:52;94070.34;;;1.88
62930;BMP280;49036;42.782;23.108;2023-01-09T07:38:17;94075.81;;;2.15
62930;BMP280;49036;42.782;23.108;2023-01-09T07:40:43;94076.25;;;2.32
62930;BMP280;49036;42.782;23.108;2023-01-09T07:43:08;94065.59;;;2.55
62930;BMP280;49036;42.782;23.108;2023-01-09T07:45:34;94082.00;;;2.68
62930;BMP280;49036;42.782;23.108;2023-01-09T07:47:59;94082.25;;;2.30
62930;BMP280;49036;42.782;23.108;2023-01-09T07:50:25;94070.31;;;2.68
62930;BMP280;49036;42.782;23.108;2023-01-09T07:52:50;94072.72;;;2.71
62930;BMP280;49036;42.782;23.108;2023-01-09T07:55:16;94078.75;;;2.56
62930;BMP280;49036;42.782;23.108;2023-01-09T07:57:41;94082.56;;;2.40
62930;BMP280;49036;42.782;23.108;2023-01-09T08:00:07;94073.28;;;2.56
62930;BMP280;49036;42.782;23.108;2023-01-09T08:02:35;94069.19;;;2.84
62930;BMP280;49036;42.782;23.108;2023-01-09T08:05:01;94069.75;;;3.16
62930;BMP280;49036;42.782;23.108;2023-01-09T08:07:27;94066.94;;;3.30
62930;BMP280;49036;42.782;23.108;2023-01-09T08:09:52;94069.09;;;3.44
62930;BMP280;49036;42.782;23.108;2023-01-09T08:12:17;94066.44;;;3.60
62930;BMP280;49036;42.782;23.108;2023-01-09T08:14:43;94060.47;;;3.69
62930;BMP280;49036;42.782;23.108;2023-01-09T08:17:08;94064.53;;;3.96
62930;BMP280;49036;42.782;23.108;2023-01-09T08:19:35;94058.56;;;4.13
62930;BMP280;49036;42.782;23.108;2023-01-09T08:22:01;94055.75;;;4.34
62930;BMP280;49036;42.782;23.108;2023-01-09T08:24:27;94056.91;;;4.46
62930;BMP280;49036;42.782;23.108;2023-01-09T08:26:54;94065.34;;;4.48
62930;BMP280;49036;42.782;23.108;2023-01-09T08:29:19;94061.13;;;4.47
62930;BMP280;49036;42.782;23.108;2023-01-09T08:31:45;94063.00;;;4.60
62930;BMP280;49036;42.782;23.108;2023-01-09T08:34:11;94062.84;;;4.22
62930;BMP280;49036;42.782;23.108;2023-01-09T08:36:36;94055.75;;;4.34
62930;BMP280;49036;42.782;23.108;2023-01-09T08:39:02;94058.03;;;4.15
62930;BMP280;49036;42.782;23.108;2023-01-09T08:41:27;94055.00;;;4.33
62930;BMP280;49036;42.782;23.108;2023-01-09T08:44:11;94061.78;;;4.32
62930;BMP280;49036;42.782;23.108;2023-01-09T08:46:55;94057.97;;;4.36
62930;BMP280;49036;42.782;23.108;2023-01-09T08:49:30;94059.22;;;4.27
62930;BMP280;49036;42.782;23.108;2023-01-09T08:51:56;94053.66;;;4.55
62930;BMP280;49036;42.782;23.108;2023-01-09T08:54:21;94049.66;;;4.64
62930;BMP280;49036;42.782;23.108;2023-01-09T08:56:47;94048.78;;;4.92
62930;BMP280;49036;42.782;23.108;2023-01-09T08:59:13;94044.66;;;5.29
62930;BMP280;49036;42.782;23.108;2023-01-09T09:01:39;94038.63;;;5.38
62930;BMP280;49036;42.782;23.108;2023-01-09T09:04:05;94039.72;;;5.50
62930;BMP280;49036;42.782;23.108;2023-01-09T09:06:31;94029.78;;;5.55
62930;BMP280;49036;42.782;23.108;2023-01-09T09:08:57;94037.31;;;5.85
62930;BMP280;49036;42.782;23.108;2023-01-09T09:11:31;94035.00;;;6.14
62930;BMP280;49036;42.782;23.108;2023-01-09T09:13:56;94034.91;;;6.45
62930;BMP280;49036;42.782;23.108;2023-01-09T09:16:25;94028.22;;;6.63
62930;BMP280;49036;42.782;23.108;2023-01-09T09:18:52;94018.72;;;6.81
62930;BMP280;49036;42.782;23.108;2023-01-09T09:21:17;94015.41;;;6.83
62930;BMP280;49036;42.782;23.108;2023-01-09T09:23:44;94005.53;;;7.05
62930;BMP280;49036;42.782;23.108;2023-01-09T09:26:10;94004.75;;;7.12
62930;BMP280;49036;42.782;23.108;2023-01-09T09:28:35;93995.50;;;7.17
62930;BMP280;49036;42.782;23.108;2023-01-09T09:31:04;93990.25;;;7.04
62930;BMP280;49036;42.782;23.108;2023-01-09T09:33:29;93970.91;;;6.86
62930;BMP280;49036;42.782;23.108;2023-01-09T09:35:57;93972.53;;;6.89
62930;BMP280;49036;42.782;23.108;2023-01-09T09:38:23;93963.00;;;6.83
62930;BMP280;49036;42.782;23.108;2023-01-09T09:46:46;93942.06;;;7.05
62930;BMP280;49036;42.782;23.108;2023-01-09T09:49:19;93942.28;;;7.24
62930;BMP280;49036;42.782;23.108;2023-01-09T09:51:59;93926.78;;;7.28
62930;BMP280;49036;42.782;23.108;2023-01-09T09:54:32;93932.25;;;7.71
62930;BMP280;49036;42.782;23.108;2023-01-09T09:57:00;93914.41;;;7.99
62930;BMP280;49036;42.782;23.108;2023-01-09T09:59:32;93912.84;;;8.05
62930;BMP280;49036;42.782;23.108;2023-01-09T10:04:37;93904.19;;;8.18
62930;BMP280;49036;42.782;23.108;2023-01-09T10:07:17;93889.44;;;8.33
62930;BMP280;49036;42.782;23.108;2023-01-09T10:09:53;93890.03;;;8.32
62930;BMP280;49036;42.782;23.108;2023-01-09T10:12:36;93889.28;;;8.31
62930;BMP280;49036;42.782;23.108;2023-01-09T10:15:14;93888.91;;;8.44
62930;BMP280;49036;42.782;23.108;2023-01-09T10:24:08;93879.31;;;8.45
62930;BMP280;49036;42.782;23.108;2023-01-09T10:26:24;93865.81;;;8.49
62930;BMP280;49036;42.782;23.108;2023-01-09T10:37:17;93857.00;;;8.34
62930;BMP280;49036;42.782;23.108;2023-01-09T10:39:49;93854.16;;;8.14
62930;BMP280;49036;42.782;23.108;2023-01-09T10:42:47;93847.16;;;8.13
62930;BMP280;49036;42.782;23.108;2023-01-09T10:45:22;93836.94;;;7.79
62930;BMP280;49036;42.782;23.108;2023-01-09T10:47:48;93834.63;;;7.85
62930;BMP280;49036;42.782;23.108;2023-01-09T10:50:19;93822.41;;;7.61
62930;BMP280;49036;42.782;23.108;2023-01-09T10:52:45;93817.31;;;7.58
62930;BMP280;49036;42.782;23.108;2023-01-09T10:57:57;93818.03;;;7.58
62930;BMP280;49036;42.782;23.108;2023-01-09T11:00:23;93811.72;;;7.48
62930;BMP280;49036;42.782;23.108;2023-01-09T11:02:50;93803.84;;;7.45
62930;BMP280;49036;42.782;23.108;2023-01-09T11:05:19;93811.09;;;7.40
62930;BMP280;49036;42.782;23.108;2023-01-09T11:07:50;93806.88;;;7.39
62930;BMP280;49036;42.782;23.108;2023-01-09T11:10:17;93791.03;;;7.40
62930;BMP280;49036;42.782;23.108;2023-01-09T11:12:43;93792.50;;;7.41
62930;BMP280;49036;42.782;23.108;2023-01-09T11:17:40;93790.47;;;7.68
62930;BMP280;49036;42.782;23.108;2023-01-09T11:20:28;93789.66;;;7.75
62930;BMP280;49036;42.782;23.108;2023-01-09T11:22:56;93786.84;;;7.93
62930;BMP280;49036;42.782;23.108;2023-01-09T11:25:25;93781.25;;;8.10
62930;BMP280;49036;42.782;23.108;2023-01-09T11:28:04;93776.53;;;8.30
62930;BMP280;49036;42.782;23.108;2023-01-09T11:30:33;93771.81;;;8.59
62930;BMP280;49036;42.782;23.108;2023-01-09T11:33:14;93763.81;;;8.82
62930;BMP280;49036;42.782;23.108;2023-01-09T11:36:03;93762.06;;;8.97
62930;BMP280;49036;42.782;23.108;2023-01-09T11:38:32;93759.75;;;8.93
62930;BMP280;49036;42.782;23.108;2023-01-09T11:41:16;93753.34;;;9.00
62930;BMP280;49036;42.782;23.108;2023-01-09T11:43:44;93752.59;;;9.00
62930;BMP280;49036;42.782;23.108;2023-01-09T11:48:56;93740.63;;;10.17
62930;BMP280;49036;42.782;23.108;2023-01-09T11:51:24;93727.59;;;10.72
62930;BMP280;49036;42.782;23.108;2023-01-09T11:56:25;93726.13;;;11.37
62930;BMP280;49036;42.782;23.108;2023-01-09T11:58:50;93730.78;;;10.78
62930;BMP280;49036;42.782;23.108;2023-01-09T12:09:37;93699.09;;;9.36
62930;BMP280;49036;42.782;23.108;2023-01-09T12:12:11;93698.22;;;9.33
62930;BMP280;49036;42.782;23.108;2023-01-09T12:28:35;93703.94;;;7.83
62930;BMP280;49036;42.782;23.108;2023-01-09T12:39:26;93686.63;;;7.82
62930;BMP280;49036;42.782;23.108;2023-01-09T12:44:49;93682.50;;;7.64
62930;BMP280;49036;42.782;23.108;2023-01-09T12:55:32;93673.56;;;7.29
62930;BMP280;49036;42.782;23.108;2023-01-09T12:58:00;93670.94;;;7.21
62930;BMP280;49036;42.782;23.108;2023-01-09T13:00:39;93666.69;;;6.93
62930;BMP280;49036;42.782;23.108;2023-01-09T13:05:51;93678.22;;;6.99
62930;BMP280;49036;42.782;23.108;2023-01-09T13:10:51;93651.19;;;6.98
62930;BMP280;49036;42.782;23.108;2023-01-09T13:13:25;93658.94;;;7.09
62930;BMP280;49036;42.782;23.108;2023-01-09T13:15:57;93659.66;;;7.10
62930;BMP280;49036;42.782;23.108;2023-01-09T13:19:26;93655.31;;;7.07
62930;BMP280;49036;42.782;23.108;2023-01-09T13:21:19;93654.25;;;7.02
62930;BMP280;49036;42.782;23.108;2023-01-09T13:23:57;93654.59;;;6.89
62930;BMP280;49036;42.782;23.108;2023-01-09T13:26:34;93646.75;;;6.85
62930;BMP280;49036;42.782;23.108;2023-01-09T13:29:16;93651.94;;;6.81
62930;BMP280;49036;42.782;23.108;2023-01-09T13:32:22;93660.28;;;6.91
62930;BMP280;49036;42.782;23.108;2023-01-09T13:34:52;93658.28;;;6.74
62930;BMP280;49036;42.782;23.108;2023-01-09T13:37:25;93658.66;;;6.70
62930;BMP280;49036;42.782;23.108;2023-01-09T13:40:03;93649.44;;;6.76
62930;BMP280;49036;42.782;23.108;2023-01-09T13:42:29;93649.38;;;6.66
62930;BMP280;49036;42.782;23.108;2023-01-09T13:45:20;93654.88;;;6.49
62930;BMP280;49036;42.782;23.108;2023-01-09T13:47:57;93649.19;;;6.29
62930;BMP280;49036;42.782;23.108;2023-01-09T13:50:32;93654.81;;;5.97
62930;BMP280;49036;42.782;23.108;2023-01-09T13:58:28;93662.00;;;5.42
62930;BMP280;49036;42.782;23.108;2023-01-09T14:01:01;93666.84;;;5.27
62930;BMP280;49036;42.782;23.108;2023-01-09T14:03:30;93668.56;;;5.14
62930;BMP280;49036;42.782;23.108;2023-01-09T14:08:25;93660.94;;;4.98
62930;BMP280;49036;42.782;23.108;2023-01-09T14:10:59;93660.25;;;4.89
62930;BMP280;49036;42.782;23.108;2023-01-09T14:13:40;93645.22;;;4.83
62930;BMP280;49036;42.782;23.108;2023-01-09T14:19:15;93633.91;;;4.71
62930;BMP280;49036;42.782;23.108;2023-01-09T14:21:46;93646.78;;;4.61
62930;BMP280;49036;42.782;23.108;2023-01-09T14:24:20;93641.13;;;4.51
62930;BMP280;49036;42.782;23.108;2023-01-09T14:26:49;93634.94;;;4.43
62930;BMP280;49036;42.782;23.108;2023-01-09T14:29:44;93634.75;;;4.33
62930;BMP280;49036;42.782;23.108;2023-01-09T14:32:41;93639.53;;;4.18
62930;BMP280;49036;42.782;23.108;2023-01-09T14:37:33;93623.25;;;4.12
62930;BMP280;49036;42.782;23.108;2023-01-09T14:40:00;93613.59;;;3.96
62930;BMP280;49036;42.782;23.108;2023-01-09T14:42:28;93627.50;;;3.90
62930;BMP280;49036;42.782;23.108;2023-01-09T14:45:06;93636.25;;;3.81
62930;BMP280;49036;42.782;23.108;2023-01-09T14:47:52;93634.44;;;3.68
62930;BMP280;49036;42.782;23.108;2023-01-09T14:50:40;93641.22;;;3.52
62930;BMP280;49036;42.782;23.108;2023-01-09T14:53:17;93623.97;;;3.44
62930;BMP280;49036;42.782;23.108;2023-01-09T14:58:25;93624.28;;;3.10
62930;BMP280;49036;42.782;23.108;2023-01-09T15:03:20;93623.84;;;2.83
62930;BMP280;49036;42.782;23.108;2023-01-09T15:05:47;93618.13;;;2.73
62930;BMP280;49036;42.782;23.108;2023-01-09T15:08:19;93613.31;;;2.58
62930;BMP280;49036;42.782;23.108;2023-01-09T15:10:46;93618.59;;;2.49
62930;BMP280;49036;42.782;23.108;2023-01-09T15:13:17;93615.75;;;2.33
62930;BMP280;49036;42.782;23.108;2023-01-09T15:15:48;93616.22;;;2.24
62930;BMP280;49036;42.782;23.108;2023-01-09T15:18:21;93605.41;;;2.11
62930;BMP280;49036;42.782;23.108;2023-01-09T15:20:53;93618.09;;;2.01
62930;BMP280;49036;42.782;23.108;2023-01-09T15:23:23;93611.69;;;1.98
62930;BMP280;49036;42.782;23.108;2023-01-09T15:25:49;93606.09;;;1.83
62930;BMP280;49036;42.782;23.108;2023-01-09T15:28:29;93618.44;;;1.76
62930;BMP280;49036;42.782;23.108;2023-01-09T15:31:11;93617.47;;;1.66
62930;BMP280;49036;42.782;23.108;2023-01-09T15:33:38;93610.69;;;1.60
62930;BMP280;49036;42.782;23.108;2023-01-09T15:36:11;93607.88;;;1.52
62930;BMP280;49036;42.782;23.108;2023-01-09T15:38:38;93602.47;;;1.39
62930;BMP280;49036;42.782;23.108;2023-01-09T15:41:09;93608.56;;;1.32
62930;BMP280;49036;42.782;23.108;2023-01-09T15:43:39;93599.47;;;1.29
62930;BMP280;49036;42.782;23.108;2023-01-09T15:46:05;93599.25;;;1.27
62930;BMP280;49036;42.782;23.108;2023-01-09T15:48:32;93612.97;;;1.14
62930;BMP280;49036;42.782;23.108;2023-01-09T15:51:04;93605.63;;;1.09
62930;BMP280;49036;42.782;23.108;2023-01-09T15:53:30;93616.25;;;0.99
62930;BMP280;49036;42.782;23.108;2023-01-09T15:58:47;93602.31;;;0.89
62930;BMP280;49036;42.782;23.108;2023-01-09T16:04:06;93597.81;;;0.79
62930;BMP280;49036;42.782;23.108;2023-01-09T16:06:40;93605.28;;;0.78
62930;BMP280;49036;42.782;23.108;2023-01-09T16:09:18;93592.06;;;0.69
62930;BMP280;49036;42.782;23.108;2023-01-09T16:11:50;93583.34;;;0.71
62930;BMP280;49036;42.782;23.108;2023-01-09T16:14:33;93584.41;;;0.68
62930;BMP280;49036;42.782;23.108;2023-01-09T16:17:05;93588.72;;;0.63
62930;BMP280;49036;42.782;23.108;2023-01-09T16:22:22;93580.31;;;0.61
62930;BMP280;49036;42.782;23.108;2023-01-09T16:24:48;93573.91;;;0.58
62930;BMP280;49036;42.782;23.108;2023-01-09T16:29:52;93582.53;;;0.62
62930;BMP280;49036;42.782;23.108;2023-01-09T16:32:25;93575.72;;;0.56
62930;BMP280;49036;42.782;23.108;2023-01-09T16:34:52;93560.25;;;0.58
62930;BMP280;49036;42.782;23.108;2023-01-09T16:37:19;93560.78;;;0.57